createdAt,value
2019-04-16T00:01:33.470Z,2.60
2019-04-16T00:12:12.908Z,2.80
2019-04-16T00:22:27.282Z,2.43
2019-04-16T00:32:32.891Z,2.50
2019-04-16T00:42:38.314Z,2.83
2019-04-16T00:52:43.855Z,2.70
2019-04-16T01:02:49.168Z,2.67
2019-04-16T01:12:54.802Z,2.60
2019-04-16T01:23:00.137Z,2.90
2019-04-16T01:33:21.094Z,2.77
2019-04-16T01:43:26.525Z,2.90
2019-04-16T01:53:31.875Z,2.63
2019-04-16T02:03:37.326Z,2.57
2019-04-16T02:13:45.853Z,2.77
2019-04-16T02:23:49.808Z,2.50
2019-04-16T02:33:55.220Z,2.80
2019-04-16T02:44:00.846Z,2.70
2019-04-16T02:54:33.923Z,2.83
2019-04-16T03:04:42.197Z,2.40
2019-04-16T03:14:47.622Z,2.80
2019-04-16T03:24:53.379Z,2.83
2019-04-16T03:34:58.723Z,2.60
2019-04-16T03:45:08.057Z,2.67
2019-04-16T03:55:11.627Z,2.80
2019-04-16T04:05:17.115Z,2.40
2019-04-16T04:15:26.056Z,2.80
2019-04-16T04:25:29.692Z,2.60
2019-04-16T04:35:39.638Z,2.87
2019-04-16T04:45:44.952Z,2.87
2019-04-16T04:55:50.338Z,2.80
2019-04-16T05:05:57.669Z,2.60
2019-04-16T05:16:03.065Z,2.93
2019-04-16T05:26:09.948Z,2.37
2019-04-16T05:36:15.779Z,2.60
2019-04-16T05:46:21.817Z,2.90
2019-04-16T05:56:58.636Z,2.80
2019-04-16T06:07:07.670Z,2.83
2019-04-16T06:17:41.341Z,2.80
2019-04-16T06:28:10.350Z,2.47
2019-04-16T06:38:24.300Z,2.70
2019-04-16T06:48:34.359Z,2.53
2019-04-16T06:58:51.139Z,2.50
2019-04-16T07:09:07.447Z,2.60
2019-04-16T07:19:16.611Z,2.53
2019-04-16T07:29:31.662Z,2.50
2019-04-16T07:39:42.711Z,2.83
2019-04-16T07:49:59.897Z,2.60
2019-04-16T08:00:09.284Z,2.40
2019-04-16T08:10:16.811Z,2.43
2019-04-16T08:20:21.463Z,2.53
2019-04-16T08:30:27.448Z,2.73
2019-04-16T08:40:33.030Z,2.60
2019-04-16T08:50:38.546Z,2.80
2019-04-16T09:00:46.411Z,2.30
2019-04-16T09:10:53.077Z,2.43
2019-04-16T09:20:58.573Z,2.60
2019-04-16T09:31:08.253Z,2.60
2019-04-16T09:41:32.588Z,2.27
2019-04-16T09:51:38.037Z,2.43
2019-04-16T10:01:56.550Z,2.37
2019-04-16T10:12:04.949Z,2.50
2019-04-16T10:22:10.022Z,2.30
2019-04-16T10:32:17.594Z,2.30
2019-04-16T10:42:44.317Z,2.47
2019-04-16T10:53:08.558Z,2.27
2019-04-16T11:03:22.498Z,2.40
2019-04-16T11:13:37.591Z,2.50
2019-04-16T11:23:43.469Z,2.50
2019-04-16T11:33:49.199Z,2.33
2019-04-16T11:43:54.573Z,2.50
2019-04-16T11:54:00.150Z,2.30
2019-04-16T12:04:15.128Z,2.50
2019-04-16T12:14:43.650Z,2.13
2019-04-16T12:25:17.534Z,2.40
2019-04-16T12:35:35.828Z,2.03
2019-04-16T12:45:58.757Z,2.20
2019-04-16T12:56:28.946Z,2.17
2019-04-16T13:06:57.585Z,2.17
2019-04-16T13:17:22.006Z,2.10
2019-04-16T13:27:32.978Z,2.10
2019-04-16T13:37:38.465Z,2.00
2019-04-16T13:47:47.946Z,2.23
2019-04-16T13:58:01.077Z,2.03
2019-04-16T14:08:06.597Z,2.20
2019-04-16T14:18:13.063Z,1.90
2019-04-16T14:28:18.375Z,1.93
2019-04-16T14:38:34.985Z,2.30
2019-04-16T14:48:45.241Z,2.17
2019-04-16T14:59:30.462Z,1.97
2019-04-16T15:09:41.567Z,1.93
2019-04-16T15:19:57.909Z,2.00
2019-04-16T15:30:20.906Z,2.00
2019-04-16T15:40:40.343Z,2.00
2019-04-16T15:50:57.330Z,2.03
2019-04-16T16:01:20.453Z,1.90
2019-04-16T16:11:35.681Z,2.13
2019-04-16T16:21:41.268Z,1.90
2019-04-16T16:31:46.759Z,2.00
2019-04-16T16:41:52.092Z,2.13
2019-04-16T16:52:15.409Z,1.90
2019-04-16T17:02:39.652Z,2.00
2019-04-16T17:12:46.213Z,2.00
2019-04-16T17:22:51.568Z,2.00
2019-04-16T17:32:57.071Z,1.87
2019-04-16T17:43:14.021Z,1.67
2019-04-16T17:53:31.321Z,1.70
2019-04-16T18:03:55.692Z,1.70
2019-04-16T18:14:29.218Z,1.87
2019-04-16T18:24:52.504Z,1.63
2019-04-16T18:35:17.194Z,1.80
2019-04-16T18:45:43.875Z,1.60
2019-04-16T18:55:49.425Z,1.90
2019-04-16T19:05:54.857Z,1.90
2019-04-16T19:16:00.675Z,1.90
2019-04-16T19:26:09.051Z,1.90
2019-04-16T19:36:14.426Z,1.80
2019-04-16T19:46:20.174Z,1.77
2019-04-16T19:56:26.178Z,1.80
2019-04-16T20:06:33.233Z,1.70
2019-04-16T20:16:41.231Z,1.90
2019-04-16T20:26:47.162Z,1.80
2019-04-16T20:36:55.855Z,1.90
2019-04-16T20:47:03.682Z,1.90
2019-04-16T20:57:07.262Z,1.77
2019-04-16T21:07:16.981Z,1.60
2019-04-16T21:17:19.795Z,1.73
2019-04-16T21:27:26.266Z,1.60
2019-04-16T21:37:51.028Z,2.00
2019-04-16T21:47:56.450Z,1.90
2019-04-16T21:58:01.780Z,1.80
2019-04-16T22:08:07.292Z,1.80
2019-04-16T22:18:12.733Z,1.60
2019-04-16T22:28:18.280Z,1.73
2019-04-16T22:38:23.813Z,1.87
2019-04-16T22:48:29.390Z,1.67
2019-04-16T22:58:50.157Z,1.90
2019-04-16T23:08:55.676Z,1.83
2019-04-16T23:19:01.265Z,1.90
2019-04-16T23:29:06.792Z,1.70
2019-04-16T23:39:13.237Z,1.80
2019-04-16T23:49:52.812Z,1.90
